Time;durP1;ratioP1;P1;durP2;ratioP2;P2;SDS_P1;SDS_P2;PMS_P1;PMS_P2;Temp;Humidity;BMP_temperature;BMP_pressure;BME280_temperature;BME280_humidity;BME280_pressure;Samples;Min_cycle;Max_cycle;Signal;HPM_P1;HPM_P2
2024/01/28 00:01:39;;;;;;;12.37;11.60;;;;;;;2.26;72.59;93686.47;5007968;28;20282;-76
2024/01/28 00:04:04;;;;;;;11.77;11.03;;;;;;;2.16;73.54;93692.06;4995695;28;20218;-76
2024/01/28 00:06:29;;;;;;;11.03;10.43;;;;;;;1.79;73.91;93674.66;5011002;28;20253;-76
2024/01/28 00:08:55;;;;;;;11.17;10.57;;;;;;;1.85;73.68;93657.63;5000836;28;20191;-76
2024/01/28 00:11:21;;;;;;;12.10;11.20;;;;;;;2.05;73.85;93686.72;5009204;28;20220;-76
2024/01/28 00:13:46;;;;;;;13.17;12.03;;;;;;;1.94;74.37;93689.91;5021066;28;20263;-76
2024/01/28 00:16:19;;;;;;;13.13;12.23;;;;;;;1.92;74.76;93684.16;5016751;28;20582;-76
2024/01/28 00:18:44;;;;;;;11.67;10.73;;;;;;;2.04;75.25;93700.59;5006695;28;20188;-77
2024/01/28 00:21:09;;;;;;;13.67;12.27;;;;;;;1.79;75.56;93689.31;4998777;28;20227;-75
2024/01/28 00:23:35;;;;;;;12.10;11.30;;;;;;;1.93;75.84;93693.47;5008492;28;20247;-75
2024/01/28 00:26:02;;;;;;;11.83;11.23;;;;;;;1.75;75.29;93681.19;4991129;28;20311;-76
2024/01/28 00:28:28;;;;;;;13.57;12.53;;;;;;;1.98;75.93;93701.41;5004756;28;21002;-77
2024/01/28 00:30:53;;;;;;;12.00;11.20;;;;;;;1.85;75.49;93697.03;5010367;28;20242;-76
2024/01/28 00:33:19;;;;;;;11.10;10.50;;;;;;;1.82;76.58;93702.59;5002071;28;20215;-76
2024/01/28 00:35:44;;;;;;;11.50;10.77;;;;;;;1.86;74.82;93703.75;5010230;28;20245;-76
2024/01/28 00:38:10;;;;;;;17.77;12.57;;;;;;;1.53;76.05;93675.47;5052451;28;20202;-77
2024/01/28 00:40:35;;;;;;;12.00;11.37;;;;;;;1.57;76.24;93678.44;5007648;28;20249;-76
2024/01/28 00:43:02;;;;;;;12.40;11.50;;;;;;;1.86;75.48;93708.91;5008439;28;20194;-77
2024/01/28 00:45:27;;;;;;;11.40;10.73;;;;;;;1.73;75.95;93693.47;5015572;28;20224;-77
2024/01/28 00:47:53;;;;;;;11.17;10.47;;;;;;;1.88;75.53;93701.78;5020081;28;20203;-76
2024/01/28 00:50:20;;;;;;;11.30;10.60;;;;;;;1.85;75.80;93699.63;5001579;28;20212;-76
2024/01/28 00:52:46;;;;;;;12.20;11.17;;;;;;;1.86;75.20;93705.53;5000697;28;21289;-77
2024/01/28 00:55:11;;;;;;;11.40;10.77;;;;;;;1.78;75.17;93695.44;5007681;28;20180;-76
2024/01/28 00:57:37;;;;;;;11.10;10.47;;;;;;;1.78;75.11;93696.25;5007799;28;20199;-76
2024/01/28 01:00:04;;;;;;;11.70;10.90;;;;;;;1.78;75.53;93698.00;5008338;28;20195;-74
2024/01/28 01:02:29;;;;;;;12.00;10.67;;;;;;;1.74;75.53;93689.13;5006266;28;20292;-77
2024/01/28 01:04:54;;;;;;;12.20;11.27;;;;;;;1.87;74.87;93720.00;5009838;28;20184;-76
2024/01/28 01:07:20;;;;;;;11.30;10.60;;;;;;;1.79;75.52;93717.63;5005188;28;20280;-77
2024/01/28 01:09:45;;;;;;;11.33;10.43;;;;;;;2.00;75.32;93712.25;5005921;28;20262;-76
2024/01/28 01:12:10;;;;;;;12.70;11.87;;;;;;;1.67;75.99;93698.63;5002590;28;20230;-77
2024/01/28 01:14:37;;;;;;;11.70;11.00;;;;;;;1.67;75.13;93701.22;5008640;28;20195;-77
2024/01/28 01:17:03;;;;;;;13.20;12.17;;;;;;;1.87;75.61;93709.72;4998558;28;20295;-76
2024/01/28 01:19:29;;;;;;;12.47;11.67;;;;;;;1.73;75.91;93718.44;5006936;28;20207;-76
2024/01/28 01:21:56;;;;;;;11.93;11.13;;;;;;;1.79;76.07;93725.34;5020076;28;20230;-77
2024/01/28 01:24:22;;;;;;;11.77;11.23;;;;;;;1.66;76.18;93702.97;5033747;28;20202;-76
2024/01/28 01:26:47;;;;;;;12.43;11.47;;;;;;;1.77;76.43;93699.81;5000836;28;20227;-76
2024/01/28 01:29:12;;;;;;;12.80;12.10;;;;;;;1.63;76.75;93686.13;5011017;28;20195;-77
2024/01/28 01:31:38;;;;;;;12.33;11.73;;;;;;;1.84;76.07;93707.53;5019969;28;20253;-76
2024/01/28 01:34:03;;;;;;;12.80;11.70;;;;;;;1.71;77.10;93712.69;5007580;28;20235;-76
2024/01/28 01:36:29;;;;;;;13.90;13.00;;;;;;;1.61;77.49;93713.06;5001379;28;20319;-77
2024/01/28 01:38:54;;;;;;;12.53;11.83;;;;;;;1.61;78.22;93705.34;5005170;28;20231;-76
2024/01/28 01:41:20;;;;;;;11.70;11.17;;;;;;;1.53;78.08;93703.75;5008419;28;20231;-76
2024/01/28 01:43:45;;;;;;;12.87;11.87;;;;;;;1.59;78.62;93704.75;5007220;28;20188;-77
2024/01/28 01:46:11;;;;;;;12.27;11.23;;;;;;;1.58;78.53;93703.97;5003905;28;20286;-76
2024/01/28 01:48:37;;;;;;;13.70;12.43;;;;;;;1.52;78.89;93704.75;5001961;28;20916;-76
2024/01/28 01:51:06;;;;;;;11.80;11.10;;;;;;;1.45;79.78;93693.66;5003166;28;20238;-76
2024/01/28 01:53:32;;;;;;;12.53;11.83;;;;;;;1.51;78.62;93700.59;4996261;28;20192;-77
2024/01/28 01:55:57;;;;;;;11.47;10.83;;;;;;;1.59;78.89;93692.69;5013037;28;20238;-77
2024/01/28 01:58:24;;;;;;;11.27;10.57;;;;;;;1.52;78.54;93706.53;4996762;28;20189;-76
2024/01/28 02:00:49;;;;;;;13.47;12.10;;;;;;;1.54;78.60;93710.47;5002853;28;20230;-77
2024/01/28 02:03:15;;;;;;;12.80;11.80;;;;;;;1.27;79.40;93696.03;5003387;28;20196;-77
2024/01/28 02:05:40;;;;;;;13.77;13.10;;;;;;;1.46;80.54;93708.09;5006342;28;20238;-76
2024/01/28 02:08:06;;;;;;;12.00;11.20;;;;;;;1.34;79.37;93699.38;5006786;28;20463;-76
2024/01/28 02:10:32;;;;;;;11.70;10.87;;;;;;;1.33;79.18;93702.97;5006262;28;20261;-77
2024/01/28 02:12:57;;;;;;;12.17;11.47;;;;;;;1.37;79.46;93703.38;5006716;28;20203;-77
2024/01/28 02:15:22;;;;;;;12.70;11.90;;;;;;;1.33;79.43;93715.81;5006471;28;20214;-76
2024/01/28 02:17:48;;;;;;;12.43;11.43;;;;;;;1.47;79.15;93711.47;5003240;28;20247;-77
2024/01/28 02:20:14;;;;;;;11.27;10.67;;;;;;;1.37;79.39;93722.13;5000899;28;20203;-76
2024/01/28 02:22:39;;;;;;;12.97;11.80;;;;;;;1.38;79.17;93721.16;5015071;28;20230;-77
2024/01/28 02:25:05;;;;;;;11.87;11.10;;;;;;;1.34;79.97;93725.09;5003210;28;20188;-77
2024/01/28 02:27:30;;;;;;;10.63;9.80;;;;;;;1.44;78.76;93719.59;5016546;28;20222;-77
2024/01/28 02:29:56;;;;;;;11.83;11.00;;;;;;;1.28;79.43;93719.94;5007323;28;20209;-77
2024/01/28 02:32:21;;;;;;;11.47;10.87;;;;;;;1.22;79.42;93708.66;5010333;28;20266;-76
2024/01/28 02:34:46;;;;;;;12.33;11.47;;;;;;;1.45;80.50;93724.53;4994050;28;20192;-76
2024/01/28 02:37:12;;;;;;;13.10;11.77;;;;;;;1.41;81.30;93731.06;5028338;28;20267;-76
2024/01/28 02:39:38;;;;;;;12.07;11.07;;;;;;;1.40;79.41;93733.84;5014214;28;20224;-76
2024/01/28 02:42:04;;;;;;;13.63;11.47;;;;;;;1.29;80.14;93730.03;5010415;28;20224;-76
2024/01/28 02:44:30;;;;;;;12.67;11.33;;;;;;;1.30;80.06;93734.22;5003503;28;20201;-77
2024/01/28 02:47:01;;;;;;;12.17;11.37;;;;;;;1.41;80.02;93725.13;4993142;28;20272;-77
2024/01/28 02:49:26;;;;;;;11.67;10.67;;;;;;;1.38;80.21;93735.81;5008373;28;20219;-76
2024/01/28 02:51:51;;;;;;;12.10;11.27;;;;;;;1.40;80.78;93738.97;5006408;28;20220;-76
2024/01/28 02:54:17;;;;;;;13.27;12.03;;;;;;;1.33;79.83;93738.97;5010897;28;20221;-76
2024/01/28 02:56:42;;;;;;;11.20;10.60;;;;;;;1.33;79.71;93749.25;5008886;28;20306;-75
2024/01/28 02:59:08;;;;;;;11.97;11.27;;;;;;;1.33;80.06;93753.59;5010281;28;20199;-76
2024/01/28 03:01:33;;;;;;;13.40;12.70;;;;;;;1.45;80.05;93746.88;5009678;28;20234;-77
2024/01/28 03:03:58;;;;;;;12.80;11.93;;;;;;;1.33;80.43;93751.03;5001480;28;20206;-76
2024/01/28 03:06:24;;;;;;;13.13;12.33;;;;;;;1.28;81.06;93756.75;4997244;28;20289;-76
2024/01/28 03:08:49;;;;;;;11.80;11.00;;;;;;;1.26;80.39;93750.22;5009488;28;20204;-75
2024/01/28 03:11:15;;;;;;;12.80;11.67;;;;;;;1.02;80.38;93725.03;5008511;28;20291;-76
2024/01/28 03:13:40;;;;;;;13.60;12.67;;;;;;;1.27;79.87;93760.31;5001712;28;20252;-75
2024/01/28 03:16:06;;;;;;;13.37;12.43;;;;;;;1.41;79.75;93759.38;5014851;28;20272;-76
2024/01/28 03:18:31;;;;;;;12.80;12.00;;;;;;;1.31;80.19;93771.78;5011998;28;20184;-77
2024/01/28 03:20:57;;;;;;;12.40;11.67;;;;;;;1.43;79.80;93775.38;5037366;28;20242;-77
2024/01/28 03:23:22;;;;;;;12.40;11.37;;;;;;;1.34;80.09;93776.56;4996070;28;20204;-76
2024/01/28 03:25:48;;;;;;;11.93;11.33;;;;;;;1.16;81.26;93773.75;5003794;28;20242;-76
2024/01/28 03:28:13;;;;;;;12.23;11.43;;;;;;;1.19;80.84;93787.97;5013885;28;20203;-75
2024/01/28 03:30:39;;;;;;;13.13;12.07;;;;;;;1.18;81.13;93787.19;5007798;28;20240;-75
2024/01/28 03:33:04;;;;;;;12.47;11.53;;;;;;;1.20;81.61;93784.41;5009459;28;20218;-76
2024/01/28 03:35:30;;;;;;;12.37;11.60;;;;;;;1.17;81.84;93759.88;5008393;28;20223;-76
2024/01/28 03:37:55;;;;;;;12.23;11.53;;;;;;;1.23;83.41;93782.25;5019777;28;20186;-76
2024/01/28 03:40:20;;;;;;;12.67;11.63;;;;;;;1.15;81.94;93781.66;5003267;28;20223;-76
2024/01/28 03:42:46;;;;;;;12.30;11.13;;;;;;;1.31;80.79;93782.09;4999946;28;20180;-76
2024/01/28 03:45:11;;;;;;;13.10;12.30;;;;;;;1.26;81.85;93788.81;5012996;28;20184;-76
2024/01/28 03:47:37;;;;;;;12.77;12.07;;;;;;;1.10;82.49;93789.94;5018347;28;20212;-76
2024/01/28 03:50:05;;;;;;;13.87;12.93;;;;;;;1.22;81.75;93788.41;5008539;28;20214;-77
2024/01/28 03:52:31;;;;;;;12.27;11.43;;;;;;;1.19;83.28;93783.63;5018399;28;20235;-76
2024/01/28 03:54:57;;;;;;;12.10;11.20;;;;;;;1.16;82.25;93784.03;5001129;28;20200;-76
2024/01/28 03:57:22;;;;;;;11.90;10.83;;;;;;;1.10;82.17;93766.00;5006580;28;20251;-76
2024/01/28 03:59:47;;;;;;;13.13;12.13;;;;;;;1.19;81.75;93783.63;5007581;28;20195;-76
2024/01/28 04:02:15;;;;;;;12.43;11.53;;;;;;;1.10;82.76;93784.81;5007536;28;20212;-75
2024/01/28 04:04:41;;;;;;;13.53;12.53;;;;;;;0.99;82.13;93781.97;5007757;28;20198;-76
2024/01/28 04:07:06;;;;;;;14.30;13.00;;;;;;;1.20;82.73;93804.97;5006546;28;20804;-77
2024/01/28 04:09:33;;;;;;;12.57;11.40;;;;;;;1.11;86.45;93801.81;5013263;28;20205;-76
2024/01/28 04:11:58;;;;;;;12.87;12.17;;;;;;;0.93;83.25;93782.75;5006597;28;20239;-76
2024/01/28 04:14:24;;;;;;;13.50;12.50;;;;;;;0.85;83.72;93794.00;4999100;28;20217;-77
2024/01/28 04:16:50;;;;;;;13.17;12.27;;;;;;;0.79;83.39;93799.88;5020112;28;20219;-76
2024/01/28 04:19:15;;;;;;;11.83;11.17;;;;;;;0.79;83.79;93815.31;5015591;28;20183;-76
2024/01/28 04:21:41;;;;;;;12.93;12.17;;;;;;;0.80;84.51;93829.75;5008498;28;20220;-75
2024/01/28 04:24:07;;;;;;;15.13;11.73;;;;;;;0.75;84.53;93819.22;4996461;28;20232;-76
2024/01/28 04:26:33;;;;;;;12.97;11.90;;;;;;;0.53;85.92;93809.22;5007527;28;20230;-75
2024/01/28 04:28:58;;;;;;;15.07;13.67;;;;;;;0.75;84.80;93828.69;5006566;28;20211;-76
2024/01/28 04:31:26;;;;;;;13.13;12.13;;;;;;;0.58;85.24;93828.22;4995755;28;20239;-76
2024/01/28 04:33:52;;;;;;;12.03;11.23;;;;;;;0.62;84.67;93820.94;5001465;28;20226;-76
2024/01/28 04:36:17;;;;;;;13.20;12.17;;;;;;;0.61;85.35;93830.41;4990673;28;20236;-76
2024/01/28 04:38:43;;;;;;;12.77;11.70;;;;;;;0.60;85.98;93826.25;5016526;28;20258;-76
2024/01/28 04:41:08;;;;;;;14.70;13.33;;;;;;;0.08;85.14;93759.13;5003958;28;20247;-76
2024/01/28 04:43:33;;;;;;;12.57;11.87;;;;;;;0.56;85.34;93832.75;4995497;28;20251;-78
2024/01/28 04:45:58;;;;;;;12.87;11.87;;;;;;;0.47;85.63;93840.81;4997363;28;20232;-76
2024/01/28 04:48:24;;;;;;;13.80;13.03;;;;;;;0.33;86.12;93824.50;5007314;28;20199;-76
2024/01/28 04:50:49;;;;;;;13.80;12.60;;;;;;;0.43;86.42;93822.41;5008116;28;20945;-77
2024/01/28 04:53:15;;;;;;;13.37;12.47;;;;;;;0.48;86.96;93832.91;5007523;28;20183;-76
2024/01/28 04:55:40;;;;;;;13.20;12.20;;;;;;;0.39;86.22;93841.72;5001611;28;20729;-75
2024/01/28 04:58:05;;;;;;;13.13;12.33;;;;;;;0.37;86.11;93838.56;5012288;28;20190;-76
2024/01/28 05:00:31;;;;;;;13.97;12.90;;;;;;;0.36;85.49;93826.69;5000773;28;20223;-76
2024/01/28 05:02:56;;;;;;;12.53;11.63;;;;;;;0.43;84.90;93837.00;4994725;28;20191;-77
2024/01/28 05:05:22;;;;;;;11.80;11.13;;;;;;;0.49;84.78;93831.91;5009408;28;20252;-77
2024/01/28 05:07:48;;;;;;;13.10;12.20;;;;;;;0.61;86.05;93830.41;5003249;28;20223;-76
2024/01/28 05:10:14;;;;;;;13.13;12.23;;;;;;;0.68;89.08;93838.97;5005468;28;20210;-76
2024/01/28 05:12:39;;;;;;;12.53;11.73;;;;;;;0.83;84.94;93839.63;5011179;28;20195;-76
2024/01/28 05:15:06;;;;;;;12.70;11.73;;;;;;;0.63;83.59;93833.59;5007510;28;20195;-77
2024/01/28 05:17:35;;;;;;;12.40;11.40;;;;;;;0.56;83.10;93848.16;5012564;28;20239;-76
2024/01/28 05:20:02;;;;;;;12.60;11.70;;;;;;;0.50;83.57;93843.78;5011500;28;20192;-75
2024/01/28 05:22:28;;;;;;;12.27;11.40;;;;;;;0.55;83.87;93856.06;5006095;28;20249;-76
2024/01/28 05:24:54;;;;;;;12.90;11.97;;;;;;;0.48;83.39;93861.16;5012207;28;20191;-76
2024/01/28 05:27:20;;;;;;;11.73;10.80;;;;;;;0.37;83.17;93845.47;5007133;28;20287;-75
2024/01/28 05:29:45;;;;;;;12.07;11.33;;;;;;;0.59;83.51;93870.91;5010225;28;20198;-77
2024/01/28 05:32:11;;;;;;;12.13;11.43;;;;;;;0.49;83.03;93864.50;5005913;28;20224;-76
2024/01/28 05:34:36;;;;;;;12.30;11.50;;;;;;;0.58;85.06;93861.63;4999902;28;20191;-76
2024/01/28 05:37:01;;;;;;;12.60;11.70;;;;;;;0.54;84.41;93868.13;5029316;28;20261;-75
2024/01/28 05:39:27;;;;;;;12.60;11.50;;;;;;;0.67;83.33;93870.75;5055779;28;20251;-76
2024/01/28 05:41:52;;;;;;;13.70;11.97;;;;;;;0.65;85.37;93861.66;4994562;28;20219;-75
2024/01/28 05:44:18;;;;;;;12.73;11.80;;;;;;;0.41;83.33;93854.38;5006869;28;20271;-77
2024/01/28 05:46:43;;;;;;;11.73;11.10;;;;;;;0.34;83.95;93859.47;5005737;28;20227;-76
2024/01/28 05:49:11;;;;;;;13.30;12.57;;;;;;;0.50;84.00;93887.44;4989700;28;20234;-76
2024/01/28 05:51:39;;;;;;;12.93;11.97;;;;;;;0.51;83.86;93890.81;4999657;28;20232;-73
2024/01/28 05:54:05;;;;;;;13.03;12.03;;;;;;;0.50;85.09;93878.97;4996282;28;20187;-74
2024/01/28 05:56:30;;;;;;;12.30;11.50;;;;;;;0.42;87.07;93890.13;5030795;28;20259;-73
2024/01/28 05:58:56;;;;;;;12.77;11.73;;;;;;;0.47;84.73;93887.03;4996742;28;20205;-74
2024/01/28 06:01:21;;;;;;;11.77;10.67;;;;;;;0.32;85.97;93881.16;4994059;28;20232;-74
2024/01/28 06:03:46;;;;;;;12.57;11.90;;;;;;;0.09;85.72;93848.03;4983502;28;20234;-74
2024/01/28 06:06:12;;;;;;;15.73;14.23;;;;;;;0.44;85.52;93897.66;4987060;28;20239;-72
2024/01/28 06:08:37;;;;;;;15.70;14.63;;;;;;;0.39;85.90;93900.78;5006201;28;20195;-75
2024/01/28 06:11:03;;;;;;;14.13;12.97;;;;;;;0.55;85.25;93902.28;5006061;28;20230;-76
2024/01/28 06:13:28;;;;;;;13.63;12.73;;;;;;;0.56;84.13;93909.03;5003040;28;20271;-73
2024/01/28 06:15:53;;;;;;;12.63;11.57;;;;;;;0.37;84.43;93889.13;5001566;28;20253;-74
2024/01/28 06:18:19;;;;;;;13.63;12.50;;;;;;;0.47;85.21;93915.28;5005585;28;20199;-74
2024/01/28 06:20:46;;;;;;;13.17;12.17;;;;;;;0.65;84.50;93919.00;5001340;28;20242;-73
2024/01/28 06:23:11;;;;;;;14.33;13.17;;;;;;;0.79;84.37;93915.53;5007779;28;20267;-74
2024/01/28 06:25:36;;;;;;;14.10;12.73;;;;;;;0.77;84.57;93878.94;5005634;28;20231;-76
2024/01/28 06:28:03;;;;;;;13.43;12.33;;;;;;;0.94;83.08;93918.00;5009148;28;20199;-77
2024/01/28 06:30:29;;;;;;;14.00;12.77;;;;;;;0.97;83.04;93920.19;5010028;28;20303;-80
2024/01/28 06:32:54;;;;;;;12.77;11.93;;;;;;;0.88;83.04;93908.47;5012307;28;20184;-78
2024/01/28 06:35:20;;;;;;;13.27;12.17;;;;;;;0.94;83.49;93928.28;5011451;28;20207;-75
2024/01/28 06:37:45;;;;;;;13.17;12.17;;;;;;;1.09;82.96;93922.03;5023233;28;20226;-75
2024/01/28 06:40:11;;;;;;;13.17;12.13;;;;;;;1.31;82.83;93923.56;4997875;28;20227;-73
2024/01/28 06:42:36;;;;;;;13.20;12.33;;;;;;;1.01;82.23;93935.03;5006366;28;20196;-74
2024/01/28 06:45:01;;;;;;;13.23;12.33;;;;;;;1.15;83.33;93947.00;5005874;28;20180;-73
2024/01/28 06:47:27;;;;;;;13.90;12.97;;;;;;;1.16;82.19;93932.38;4996799;28;20223;-73
2024/01/28 06:49:52;;;;;;;12.73;11.87;;;;;;;1.27;82.67;93937.78;5004431;28;20196;-75
2024/01/28 06:52:17;;;;;;;12.93;11.93;;;;;;;1.12;81.91;93938.88;4990442;28;20295;-74
2024/01/28 06:54:44;;;;;;;11.63;10.63;;;;;;;1.19;82.90;93927.66;4997014;28;20196;-72
2024/01/28 06:57:09;;;;;;;13.70;12.17;;;;;;;1.03;82.10;93943.38;4999527;28;20236;-76
2024/01/28 06:59:34;;;;;;;14.10;13.10;;;;;;;1.34;82.77;93956.63;5002605;28;20274;-73
2024/01/28 07:02:00;;;;;;;14.60;13.60;;;;;;;1.22;81.32;93900.75;5002976;28;20231;-74
2024/01/28 07:04:25;;;;;;;14.07;12.97;;;;;;;1.47;81.91;93945.59;4998556;28;20583;-73
2024/01/28 07:06:51;;;;;;;15.40;14.17;;;;;;;1.53;80.15;93949.97;5003719;28;20238;-73
2024/01/28 07:09:17;;;;;;;13.20;12.40;;;;;;;1.43;81.43;93940.03;5016116;28;20188;-78
2024/01/28 07:11:43;;;;;;;12.80;12.10;;;;;;;1.49;80.04;93952.13;5008942;28;20227;-72
2024/01/28 07:14:08;;;;;;;14.73;13.47;;;;;;;1.33;80.85;93954.22;5012320;28;20188;-72
2024/01/28 07:16:34;;;;;;;13.07;11.93;;;;;;;1.44;81.44;93954.50;5020948;28;20324;-72
2024/01/28 07:19:00;;;;;;;14.10;13.20;;;;;;;1.48;81.19;93952.31;5004959;28;20180;-72
2024/01/28 07:21:26;;;;;;;14.73;13.73;;;;;;;2.24;83.36;93964.88;5006149;28;20342;-71
2024/01/28 07:23:51;;;;;;;13.60;12.70;;;;;;;1.53;81.62;93961.06;5003555;28;20205;-72
2024/01/28 07:26:17;;;;;;;12.27;11.27;;;;;;;1.51;85.46;93952.75;5001936;28;20239;-73
2024/01/28 07:28:42;;;;;;;13.23;12.37;;;;;;;1.16;83.27;93965.81;5004333;28;20215;-73
2024/01/28 07:31:09;;;;;;;15.27;14.07;;;;;;;1.92;81.79;93969.94;4999180;28;20228;-76
2024/01/28 07:33:35;;;;;;;12.83;12.13;;;;;;;1.38;82.13;93968.13;4985970;28;20208;-75
2024/01/28 07:36:01;;;;;;;14.30;13.10;;;;;;;1.19;82.57;93952.56;5024618;28;20232;-76
2024/01/28 07:38:26;;;;;;;14.00;12.73;;;;;;;1.25;82.52;93957.75;5039141;28;20184;-75
2024/01/28 07:40:52;;;;;;;13.13;12.00;;;;;;;1.44;84.38;93958.84;4987425;28;20235;-75
2024/01/28 07:43:17;;;;;;;12.63;11.83;;;;;;;1.41;82.54;93975.47;5002016;28;20196;-76
2024/01/28 07:45:42;;;;;;;14.10;13.10;;;;;;;1.50;81.70;93982.03;5007917;28;20223;-76
2024/01/28 07:48:08;;;;;;;13.93;12.60;;;;;;;1.55;81.09;93981.47;4996653;28;20998;-75
2024/01/28 07:50:33;;;;;;;11.77;10.97;;;;;;;1.42;81.18;93971.91;5006522;28;20248;-75
2024/01/28 07:52:59;;;;;;;12.67;11.87;;;;;;;1.48;81.19;93962.63;5009025;28;20211;-75
2024/01/28 07:55:24;;;;;;;12.30;11.63;;;;;;;1.70;81.38;93960.75;5006169;28;20206;-76
2024/01/28 07:57:50;;;;;;;12.03;11.30;;;;;;;1.85;78.69;93963.97;5010175;28;20199;-74
2024/01/28 08:00:15;;;;;;;12.50;11.80;;;;;;;1.59;79.91;93956.94;5006626;28;20190;-76
2024/01/28 08:02:41;;;;;;;13.97;13.13;;;;;;;1.77;78.52;93930.69;5008607;28;20247;-75
2024/01/28 08:05:06;;;;;;;13.87;12.97;;;;;;;1.81;78.45;93913.84;5009589;28;20226;-76
2024/01/28 08:07:32;;;;;;;13.17;12.33;;;;;;;1.96;78.71;93947.97;5008177;28;20212;-76
2024/01/28 08:09:57;;;;;;;14.33;13.13;;;;;;;1.98;79.42;93967.38;5008645;28;20191;-75
2024/01/28 08:12:23;;;;;;;14.23;13.00;;;;;;;1.90;79.95;93980.44;5011886;28;20227;-75
2024/01/28 08:14:48;;;;;;;13.83;12.83;;;;;;;2.03;79.13;93977.91;5009918;28;20205;-76
2024/01/28 08:17:13;;;;;;;12.67;11.87;;;;;;;1.89;78.96;93955.69;5004140;28;20216;-75
2024/01/28 08:19:39;;;;;;;12.83;11.93;;;;;;;2.29;78.20;93983.13;5006368;28;20223;-74
2024/01/28 08:22:04;;;;;;;14.23;13.10;;;;;;;2.11;78.24;93974.38;5002875;28;20231;-75
2024/01/28 08:24:30;;;;;;;12.47;11.67;;;;;;;2.21;77.80;93982.53;4999132;28;20244;-75
2024/01/28 08:26:56;;;;;;;12.73;12.03;;;;;;;2.15;77.28;93960.13;5003433;28;20270;-76
2024/01/28 08:29:22;;;;;;;12.47;11.77;;;;;;;2.09;77.07;93960.88;5012423;28;20187;-75
2024/01/28 08:31:48;;;;;;;12.17;11.50;;;;;;;1.99;77.81;93973.34;5007138;28;20224;-75
2024/01/28 08:34:13;;;;;;;13.07;12.20;;;;;;;1.78;78.23;93976.03;4985324;28;20203;-75
2024/01/28 08:36:38;;;;;;;11.47;10.67;;;;;;;2.22;77.31;93989.25;4994584;28;20257;-76
2024/01/28 08:39:05;;;;;;;12.17;11.37;;;;;;;2.15;77.11;93994.38;4997973;28;20235;-75
2024/01/28 08:41:30;;;;;;;13.00;12.20;;;;;;;2.23;75.98;93999.38;4979983;28;20229;-76
2024/01/28 08:43:55;;;;;;;13.73;12.87;;;;;;;2.36;80.01;93999.41;4976304;28;20190;-75
2024/01/28 08:46:21;;;;;;;12.50;11.50;;;;;;;2.23;75.42;93993.41;4990553;28;20284;-76
2024/01/28 08:48:46;;;;;;;12.87;11.97;;;;;;;2.19;76.26;93989.66;5001955;28;20212;-75
2024/01/28 08:51:12;;;;;;;13.17;12.10;;;;;;;2.44;75.48;94003.59;5006869;28;20219;-75
2024/01/28 08:53:37;;;;;;;14.07;12.47;;;;;;;2.31;76.36;93986.31;5014772;28;20229;-75
2024/01/28 08:56:03;;;;;;;12.80;11.73;;;;;;;2.48;75.06;94017.66;5019408;28;20235;-75
2024/01/28 08:58:30;;;;;;;13.20;12.10;;;;;;;2.44;75.70;94008.75;4998769;28;20202;-76
2024/01/28 09:00:56;;;;;;;12.77;11.90;;;;;;;2.56;74.71;94009.75;5007152;28;20227;-75
2024/01/28 09:03:21;;;;;;;14.07;12.60;;;;;;;2.75;74.34;93999.50;4996593;28;21007;-76
2024/01/28 09:05:47;;;;;;;14.10;12.83;;;;;;;2.60;73.46;93995.50;5005758;28;20243;-76
2024/01/28 09:08:13;;;;;;;13.47;12.50;;;;;;;2.78;72.94;94026.66;4998587;28;20180;-76
2024/01/28 09:10:38;;;;;;;13.73;12.77;;;;;;;3.00;72.51;94020.34;4993093;28;20287;-75
2024/01/28 09:13:04;;;;;;;12.40;11.30;;;;;;;2.70;73.37;94021.69;4997126;28;20218;-76
2024/01/28 09:15:29;;;;;;;12.27;11.43;;;;;;;2.92;72.18;94010.22;5005019;28;20245;-75
2024/01/28 09:17:55;;;;;;;12.63;11.63;;;;;;;2.30;74.25;93992.47;4998968;28;20216;-75
2024/01/28 09:20:20;;;;;;;12.90;11.63;;;;;;;2.70;74.45;94021.69;5022801;28;20207;-75
2024/01/28 09:22:45;;;;;;;13.33;12.33;;;;;;;2.97;73.35;94028.47;5013369;28;20177;-75
2024/01/28 09:25:11;;;;;;;14.00;12.90;;;;;;;3.03;73.65;94027.69;5009661;28;20207;-76
2024/01/28 09:27:37;;;;;;;14.33;11.60;;;;;;;3.08;73.12;94033.03;5005670;28;20180;-76
2024/01/28 09:30:02;;;;;;;13.00;11.90;;;;;;;3.00;74.18;94028.06;4996724;28;20167;-75
2024/01/28 09:32:28;;;;;;;13.00;12.00;;;;;;;3.06;73.10;94025.50;5006267;28;20264;-75
2024/01/28 09:34:53;;;;;;;11.27;10.67;;;;;;;3.18;72.45;94036.00;5007771;28;20183;-76
2024/01/28 09:37:19;;;;;;;13.50;12.40;;;;;;;2.77;73.77;94025.84;5016627;28;20448;-76
2024/01/28 09:39:45;;;;;;;12.37;11.33;;;;;;;3.18;72.87;94036.00;5007058;28;20285;-75
2024/01/28 09:42:34;;;;;;;12.00;11.20;;;;;;;3.12;74.12;94016.97;4998995;28;20215;-75
2024/01/28 09:45:00;;;;;;;13.30;12.23;;;;;;;3.21;73.80;94007.22;5004302;28;20202;-75
2024/01/28 09:47:27;;;;;;;13.23;11.93;;;;;;;3.19;74.15;94010.00;4999738;28;20219;-75
2024/01/28 09:49:52;;;;;;;13.07;11.90;;;;;;;3.18;73.41;94015.34;4994358;28;20260;-75
2024/01/28 09:52:17;;;;;;;13.57;12.30;;;;;;;3.13;74.67;94013.38;5006663;28;20215;-76
2024/01/28 09:54:47;;;;;;;13.60;12.53;;;;;;;3.40;72.59;94014.16;5006690;28;20236;-75
2024/01/28 09:57:14;;;;;;;14.20;13.07;;;;;;;3.34;71.82;94009.81;4997921;28;20315;-75
2024/01/28 09:59:39;;;;;;;14.73;13.63;;;;;;;3.23;71.78;94020.72;5018975;28;20207;-75
2024/01/28 10:02:05;;;;;;;15.37;13.67;;;;;;;3.00;73.61;94012.59;5015967;28;20216;-76
2024/01/28 10:04:31;;;;;;;12.60;11.67;;;;;;;3.02;74.33;94016.56;4993278;28;20627;-75
2024/01/28 10:07:01;;;;;;;12.40;11.70;;;;;;;3.14;73.80;94006.44;5010217;28;20215;-75
2024/01/28 10:09:27;;;;;;;12.20;11.27;;;;;;;3.09;73.80;94003.66;4998406;28;20212;-75
2024/01/28 10:11:53;;;;;;;12.83;11.67;;;;;;;3.20;73.18;94018.53;5002541;28;20906;-76
2024/01/28 10:14:18;;;;;;;12.33;11.53;;;;;;;2.80;73.43;93988.59;5005721;28;20244;-76
2024/01/28 10:16:48;;;;;;;11.37;10.67;;;;;;;2.97;73.57;94013.75;4995756;28;20211;-75
2024/01/28 10:19:13;;;;;;;12.27;11.47;;;;;;;2.77;74.45;93991.56;5006287;28;20187;-75
2024/01/28 10:21:39;;;;;;;13.73;12.87;;;;;;;2.76;75.45;94002.84;5016125;28;20225;-75
2024/01/28 10:24:08;;;;;;;11.87;11.20;;;;;;;2.72;77.13;93993.94;5006500;28;20200;-75
2024/01/28 10:26:34;;;;;;;11.87;11.03;;;;;;;3.09;75.12;94011.41;5005174;28;20244;-75
2024/01/28 10:28:59;;;;;;;12.67;11.57;;;;;;;3.22;74.44;93995.94;4994832;28;20181;-75
2024/01/28 10:31:25;;;;;;;13.03;12.23;;;;;;;3.12;74.26;93986.00;4999506;28;20324;-75
2024/01/28 10:33:50;;;;;;;12.97;11.90;;;;;;;3.37;73.84;94009.41;5006739;28;20184;-74
2024/01/28 10:36:18;;;;;;;12.13;11.30;;;;;;;3.24;74.21;94007.63;5000689;28;20243;-75
2024/01/28 10:38:45;;;;;;;11.83;11.13;;;;;;;2.98;74.87;93984.41;5017217;28;20291;-76
2024/01/28 10:41:19;;;;;;;13.07;12.13;;;;;;;2.77;77.01;94007.03;5037452;28;20288;-75
2024/01/28 10:43:57;;;;;;;12.47;11.77;;;;;;;2.87;75.71;93991.94;5006058;28;20234;-75
2024/01/28 10:46:41;;;;;;;12.13;11.37;;;;;;;2.95;75.34;93996.91;5009694;28;20223;-75
2024/01/28 10:49:08;;;;;;;12.40;11.60;;;;;;;2.82;75.81;94010.59;5010377;28;20195;-75
2024/01/28 10:51:36;;;;;;;13.03;11.43;;;;;;;2.62;77.14;94008.97;5027706;28;20223;-74
2024/01/28 10:54:09;;;;;;;11.20;10.60;;;;;;;2.71;75.20;93989.75;5008877;28;20199;-75
2024/01/28 10:56:38;;;;;;;13.80;12.77;;;;;;;2.71;76.72;93997.47;5007001;28;20257;-76
2024/01/28 10:59:04;;;;;;;13.40;12.33;;;;;;;2.68;77.39;94003.03;5008485;28;20211;-75
2024/01/28 11:01:30;;;;;;;14.27;13.03;;;;;;;2.80;77.32;93991.16;5007814;28;20290;-75
2024/01/28 11:03:58;;;;;;;14.17;13.37;;;;;;;2.94;76.60;94003.06;5001371;28;20191;-75
2024/01/28 11:06:29;;;;;;;12.23;11.53;;;;;;;3.25;75.49;93998.09;5008569;28;20238;-75
2024/01/28 11:08:55;;;;;;;12.03;11.33;;;;;;;3.17;75.40;93996.53;5008850;28;20183;-75
2024/01/28 11:11:21;;;;;;;12.63;11.90;;;;;;;3.06;76.16;94002.28;5004769;28;20220;-75
2024/01/28 11:13:46;;;;;;;13.73;12.73;;;;;;;2.98;76.52;93993.94;4998950;28;20214;-74
2024/01/28 11:16:12;;;;;;;13.47;12.30;;;;;;;3.05;76.71;93981.84;4997400;28;20208;-74
2024/01/28 11:18:37;;;;;;;12.73;11.93;;;;;;;2.95;76.52;93994.34;5008863;28;20199;-75